sensor_id;sensor_type;location;lat;lon;timestamp;P1;durP1;ratioP1;P2;durP2;ratioP2
10493;SDS011;5294;49.410;8.698;2022-12-16T00:00:28;22.80;;;15.47;;
10493;SDS011;5294;49.410;8.698;2022-12-16T00:02:54;24.70;;;16.23;;
10493;SDS011;5294;49.410;8.698;2022-12-16T00:05:22;21.07;;;14.33;;
10493;SDS011;5294;49.410;8.698;2022-12-16T00:07:48;20.27;;;13.73;;
10493;SDS011;5294;49.410;8.698;2022-12-16T00:10:14;21.70;;;15.40;;
10493;SDS011;5294;49.410;8.698;2022-12-16T00:12:40;20.80;;;14.57;;
10493;SDS011;5294;49.410;8.698;2022-12-16T00:15:06;22.33;;;14.57;;
10493;SDS011;5294;49.410;8.698;2022-12-16T00:17:32;22.63;;;15.10;;
10493;SDS011;5294;49.410;8.698;2022-12-16T00:20:00;23.33;;;14.90;;
10493;SDS011;5294;49.410;8.698;2022-12-16T00:22:27;22.97;;;14.93;;
10493;SDS011;5294;49.410;8.698;2022-12-16T00:24:53;22.27;;;14.97;;
10493;SDS011;5294;49.410;8.698;2022-12-16T00:27:19;23.07;;;15.07;;
10493;SDS011;5294;49.410;8.698;2022-12-16T00:29:45;22.57;;;14.80;;
10493;SDS011;5294;49.410;8.698;2022-12-16T00:32:11;21.93;;;14.63;;
10493;SDS011;5294;49.410;8.698;2022-12-16T00:34:39;21.97;;;15.23;;
10493;SDS011;5294;49.410;8.698;2022-12-16T00:37:05;21.70;;;14.07;;
10493;SDS011;5294;49.410;8.698;2022-12-16T00:39:31;22.27;;;15.00;;
10493;SDS011;5294;49.410;8.698;2022-12-16T00:41:57;22.23;;;14.67;;
10493;SDS011;5294;49.410;8.698;2022-12-16T00:44:23;21.80;;;14.77;;
10493;SDS011;5294;49.410;8.698;2022-12-16T00:46:49;19.63;;;13.77;;
10493;SDS011;5294;49.410;8.698;2022-12-16T00:49:17;19.23;;;14.10;;
10493;SDS011;5294;49.410;8.698;2022-12-16T00:51:46;18.97;;;13.40;;
10493;SDS011;5294;49.410;8.698;2022-12-16T00:54:14;21.03;;;13.80;;
10493;SDS011;5294;49.410;8.698;2022-12-16T00:56:40;21.23;;;13.77;;
10493;SDS011;5294;49.410;8.698;2022-12-16T00:59:06;19.00;;;12.80;;
10493;SDS011;5294;49.410;8.698;2022-12-16T01:01:32;18.77;;;13.67;;
10493;SDS011;5294;49.410;8.698;2022-12-16T01:03:58;20.40;;;14.73;;
10493;SDS011;5294;49.410;8.698;2022-12-16T01:06:24;17.93;;;13.53;;
10493;SDS011;5294;49.410;8.698;2022-12-16T01:08:52;22.50;;;14.37;;
10493;SDS011;5294;49.410;8.698;2022-12-16T01:11:18;21.57;;;13.43;;
10493;SDS011;5294;49.410;8.698;2022-12-16T01:13:45;18.20;;;13.30;;
10493;SDS011;5294;49.410;8.698;2022-12-16T01:16:11;20.17;;;13.50;;
10493;SDS011;5294;49.410;8.698;2022-12-16T01:18:37;19.80;;;14.40;;
10493;SDS011;5294;49.410;8.698;2022-12-16T01:21:04;21.50;;;14.60;;
10493;SDS011;5294;49.410;8.698;2022-12-16T01:23:32;16.67;;;12.90;;
10493;SDS011;5294;49.410;8.698;2022-12-16T01:25:59;21.37;;;13.03;;
10493;SDS011;5294;49.410;8.698;2022-12-16T01:28:28;18.50;;;12.80;;
10493;SDS011;5294;49.410;8.698;2022-12-16T01:30:55;19.20;;;13.40;;
10493;SDS011;5294;49.410;8.698;2022-12-16T01:33:25;19.77;;;13.63;;
10493;SDS011;5294;49.410;8.698;2022-12-16T01:35:57;20.53;;;14.60;;
10493;SDS011;5294;49.410;8.698;2022-12-16T01:38:25;18.90;;;13.13;;
10493;SDS011;5294;49.410;8.698;2022-12-16T01:40:51;16.10;;;12.03;;
10493;SDS011;5294;49.410;8.698;2022-12-16T01:43:21;19.47;;;12.70;;
10493;SDS011;5294;49.410;8.698;2022-12-16T01:45:48;16.97;;;12.30;;
10493;SDS011;5294;49.410;8.698;2022-12-16T01:50:43;19.27;;;13.30;;
10493;SDS011;5294;49.410;8.698;2022-12-16T01:53:12;17.33;;;13.20;;
10493;SDS011;5294;49.410;8.698;2022-12-16T01:55:39;16.93;;;12.23;;
10493;SDS011;5294;49.410;8.698;2022-12-16T01:58:08;16.60;;;12.57;;
10493;SDS011;5294;49.410;8.698;2022-12-16T02:00:38;19.70;;;12.97;;
10493;SDS011;5294;49.410;8.698;2022-12-16T02:03:05;19.53;;;13.30;;
10493;SDS011;5294;49.410;8.698;2022-12-16T02:05:32;20.73;;;14.07;;
10493;SDS011;5294;49.410;8.698;2022-12-16T02:10:32;17.30;;;13.07;;
10493;SDS011;5294;49.410;8.698;2022-12-16T02:13:03;17.27;;;12.63;;
10493;SDS011;5294;49.410;8.698;2022-12-16T02:15:37;16.23;;;12.40;;
10493;SDS011;5294;49.410;8.698;2022-12-16T02:31:19;15.63;;;12.40;;
10493;SDS011;5294;49.410;8.698;2022-12-16T02:41:46;14.73;;;10.63;;
10493;SDS011;5294;49.410;8.698;2022-12-16T02:44:15;17.57;;;11.23;;
10493;SDS011;5294;49.410;8.698;2022-12-16T02:46:42;15.67;;;11.40;;
10493;SDS011;5294;49.410;8.698;2022-12-16T02:51:40;15.90;;;11.43;;
10493;SDS011;5294;49.410;8.698;2022-12-16T02:54:06;14.63;;;10.63;;
10493;SDS011;5294;49.410;8.698;2022-12-16T02:56:40;14.63;;;10.83;;
10493;SDS011;5294;49.410;8.698;2022-12-16T03:04:11;16.53;;;11.53;;
10493;SDS011;5294;49.410;8.698;2022-12-16T03:06:41;17.77;;;10.83;;
10493;SDS011;5294;49.410;8.698;2022-12-16T03:09:09;16.10;;;11.73;;
10493;SDS011;5294;49.410;8.698;2022-12-16T03:11:37;13.60;;;10.43;;
10493;SDS011;5294;49.410;8.698;2022-12-16T03:14:05;16.37;;;10.97;;
10493;SDS011;5294;49.410;8.698;2022-12-16T03:16:35;17.20;;;11.20;;
10493;SDS011;5294;49.410;8.698;2022-12-16T03:19:02;15.90;;;11.50;;
10493;SDS011;5294;49.410;8.698;2022-12-16T03:21:33;14.53;;;11.17;;
10493;SDS011;5294;49.410;8.698;2022-12-16T03:24:01;13.90;;;10.83;;
10493;SDS011;5294;49.410;8.698;2022-12-16T03:26:35;16.23;;;10.73;;
10493;SDS011;5294;49.410;8.698;2022-12-16T03:31:40;16.83;;;10.67;;
10493;SDS011;5294;49.410;8.698;2022-12-16T03:36:52;13.90;;;9.83;;
10493;SDS011;5294;49.410;8.698;2022-12-16T03:39:20;15.47;;;10.87;;
10493;SDS011;5294;49.410;8.698;2022-12-16T03:41:48;16.17;;;10.97;;
10493;SDS011;5294;49.410;8.698;2022-12-16T03:44:15;15.37;;;10.83;;
10493;SDS011;5294;49.410;8.698;2022-12-16T03:46:44;17.37;;;10.27;;
10493;SDS011;5294;49.410;8.698;2022-12-16T03:49:10;17.47;;;10.90;;
10493;SDS011;5294;49.410;8.698;2022-12-16T03:51:38;16.23;;;10.70;;
10493;SDS011;5294;49.410;8.698;2022-12-16T03:54:06;16.13;;;10.73;;
10493;SDS011;5294;49.410;8.698;2022-12-16T03:56:35;16.27;;;11.03;;
10493;SDS011;5294;49.410;8.698;2022-12-16T03:59:01;13.03;;;9.47;;
10493;SDS011;5294;49.410;8.698;2022-12-16T04:01:27;14.63;;;10.40;;
10493;SDS011;5294;49.410;8.698;2022-12-16T04:03:53;15.27;;;10.63;;
10493;SDS011;5294;49.410;8.698;2022-12-16T04:06:19;17.57;;;11.20;;
10493;SDS011;5294;49.410;8.698;2022-12-16T04:08:45;16.03;;;10.83;;
10493;SDS011;5294;49.410;8.698;2022-12-16T04:11:16;14.03;;;10.17;;
10493;SDS011;5294;49.410;8.698;2022-12-16T04:14:00;16.30;;;11.53;;
10493;SDS011;5294;49.410;8.698;2022-12-16T04:16:44;15.80;;;10.70;;
10493;SDS011;5294;49.410;8.698;2022-12-16T04:19:32;15.70;;;10.70;;
10493;SDS011;5294;49.410;8.698;2022-12-16T04:22:18;15.07;;;10.00;;
10493;SDS011;5294;49.410;8.698;2022-12-16T04:25:06;17.37;;;10.87;;
10493;SDS011;5294;49.410;8.698;2022-12-16T04:27:32;16.73;;;10.40;;
10493;SDS011;5294;49.410;8.698;2022-12-16T04:29:58;14.83;;;11.03;;
10493;SDS011;5294;49.410;8.698;2022-12-16T04:32:42;15.93;;;10.70;;
10493;SDS011;5294;49.410;8.698;2022-12-16T04:35:27;17.30;;;11.00;;
10493;SDS011;5294;49.410;8.698;2022-12-16T04:38:12;14.93;;;10.63;;
10493;SDS011;5294;49.410;8.698;2022-12-16T04:40:56;17.83;;;10.93;;
10493;SDS011;5294;49.410;8.698;2022-12-16T04:43:44;15.33;;;10.70;;
10493;SDS011;5294;49.410;8.698;2022-12-16T04:46:28;15.67;;;11.30;;
10493;SDS011;5294;49.410;8.698;2022-12-16T04:49:15;15.07;;;10.50;;
10493;SDS011;5294;49.410;8.698;2022-12-16T04:51:59;18.40;;;10.97;;
10493;SDS011;5294;49.410;8.698;2022-12-16T04:54:44;17.47;;;11.27;;
10493;SDS011;5294;49.410;8.698;2022-12-16T04:57:28;15.47;;;10.37;;
10493;SDS011;5294;49.410;8.698;2022-12-16T05:00:13;13.13;;;10.20;;
10493;SDS011;5294;49.410;8.698;2022-12-16T05:02:57;15.90;;;10.10;;
10493;SDS011;5294;49.410;8.698;2022-12-16T05:05:42;14.80;;;10.73;;
10493;SDS011;5294;49.410;8.698;2022-12-16T05:08:27;16.70;;;10.73;;
10493;SDS011;5294;49.410;8.698;2022-12-16T05:11:11;19.07;;;11.77;;
10493;SDS011;5294;49.410;8.698;2022-12-16T05:13:56;15.30;;;9.53;;
10493;SDS011;5294;49.410;8.698;2022-12-16T05:16:40;14.97;;;10.53;;
10493;SDS011;5294;49.410;8.698;2022-12-16T05:19:25;16.20;;;10.63;;
10493;SDS011;5294;49.410;8.698;2022-12-16T05:22:09;17.20;;;10.70;;
10493;SDS011;5294;49.410;8.698;2022-12-16T05:24:54;16.00;;;10.80;;
10493;SDS011;5294;49.410;8.698;2022-12-16T05:27:38;14.67;;;10.17;;
10493;SDS011;5294;49.410;8.698;2022-12-16T05:30:23;17.30;;;10.97;;
10493;SDS011;5294;49.410;8.698;2022-12-16T05:33:08;19.20;;;10.80;;
10493;SDS011;5294;49.410;8.698;2022-12-16T05:35:52;16.57;;;11.00;;
10493;SDS011;5294;49.410;8.698;2022-12-16T05:38:37;15.43;;;10.37;;
10493;SDS011;5294;49.410;8.698;2022-12-16T05:41:21;18.63;;;11.10;;
10493;SDS011;5294;49.410;8.698;2022-12-16T05:44:08;15.97;;;10.57;;
10493;SDS011;5294;49.410;8.698;2022-12-16T05:46:52;17.20;;;10.77;;
10493;SDS011;5294;49.410;8.698;2022-12-16T05:49:37;15.90;;;10.60;;
10493;SDS011;5294;49.410;8.698;2022-12-16T05:52:21;17.43;;;11.17;;
10493;SDS011;5294;49.410;8.698;2022-12-16T05:55:06;13.97;;;10.77;;
10493;SDS011;5294;49.410;8.698;2022-12-16T05:57:51;18.30;;;11.10;;
10493;SDS011;5294;49.410;8.698;2022-12-16T06:00:36;19.50;;;11.77;;
10493;SDS011;5294;49.410;8.698;2022-12-16T06:03:21;18.03;;;10.47;;
10493;SDS011;5294;49.410;8.698;2022-12-16T06:06:08;16.53;;;10.50;;
10493;SDS011;5294;49.410;8.698;2022-12-16T06:08:53;17.70;;;10.60;;
10493;SDS011;5294;49.410;8.698;2022-12-16T06:11:37;16.13;;;10.90;;
10493;SDS011;5294;49.410;8.698;2022-12-16T06:14:24;17.20;;;11.17;;
10493;SDS011;5294;49.410;8.698;2022-12-16T06:17:09;21.20;;;11.40;;
10493;SDS011;5294;49.410;8.698;2022-12-16T06:19:53;15.03;;;10.40;;
10493;SDS011;5294;49.410;8.698;2022-12-16T06:22:38;17.67;;;10.73;;
10493;SDS011;5294;49.410;8.698;2022-12-16T06:25:22;20.33;;;11.57;;
10493;SDS011;5294;49.410;8.698;2022-12-16T06:28:07;18.57;;;11.73;;
10493;SDS011;5294;49.410;8.698;2022-12-16T06:30:51;17.77;;;11.47;;
10493;SDS011;5294;49.410;8.698;2022-12-16T06:33:38;18.40;;;11.13;;
10493;SDS011;5294;49.410;8.698;2022-12-16T06:36:23;19.30;;;11.93;;
10493;SDS011;5294;49.410;8.698;2022-12-16T06:39:07;19.67;;;11.47;;
10493;SDS011;5294;49.410;8.698;2022-12-16T06:41:52;18.63;;;11.73;;
10493;SDS011;5294;49.410;8.698;2022-12-16T06:44:36;18.90;;;12.37;;
10493;SDS011;5294;49.410;8.698;2022-12-16T06:47:21;21.30;;;12.57;;
10493;SDS011;5294;49.410;8.698;2022-12-16T06:50:08;20.57;;;12.47;;
10493;SDS011;5294;49.410;8.698;2022-12-16T06:52:52;16.50;;;11.60;;
10493;SDS011;5294;49.410;8.698;2022-12-16T06:55:37;18.77;;;10.93;;
10493;SDS011;5294;49.410;8.698;2022-12-16T06:58:21;19.33;;;12.17;;
10493;SDS011;5294;49.410;8.698;2022-12-16T07:01:06;19.77;;;12.50;;
10493;SDS011;5294;49.410;8.698;2022-12-16T07:03:50;22.00;;;11.70;;
10493;SDS011;5294;49.410;8.698;2022-12-16T07:06:35;19.60;;;12.23;;
10493;SDS011;5294;49.410;8.698;2022-12-16T07:09:22;18.90;;;11.83;;
10493;SDS011;5294;49.410;8.698;2022-12-16T07:12:06;21.40;;;12.43;;
10493;SDS011;5294;49.410;8.698;2022-12-16T07:14:51;18.57;;;11.97;;
10493;SDS011;5294;49.410;8.698;2022-12-16T07:17:38;19.30;;;11.70;;
10493;SDS011;5294;49.410;8.698;2022-12-16T07:20:22;19.20;;;12.17;;
10493;SDS011;5294;49.410;8.698;2022-12-16T07:23:07;22.53;;;12.77;;
10493;SDS011;5294;49.410;8.698;2022-12-16T07:25:52;25.10;;;13.90;;
10493;SDS011;5294;49.410;8.698;2022-12-16T07:28:37;25.63;;;13.40;;
10493;SDS011;5294;49.410;8.698;2022-12-16T07:31:21;17.57;;;10.97;;
10493;SDS011;5294;49.410;8.698;2022-12-16T07:34:06;19.63;;;11.47;;
10493;SDS011;5294;49.410;8.698;2022-12-16T07:36:50;18.90;;;11.17;;
10493;SDS011;5294;49.410;8.698;2022-12-16T07:39:37;18.90;;;11.47;;
10493;SDS011;5294;49.410;8.698;2022-12-16T07:42:22;21.40;;;12.00;;
10493;SDS011;5294;49.410;8.698;2022-12-16T07:45:07;21.23;;;12.07;;
10493;SDS011;5294;49.410;8.698;2022-12-16T07:47:52;23.40;;;13.23;;
10493;SDS011;5294;49.410;8.698;2022-12-16T07:50:37;19.77;;;12.37;;
10493;SDS011;5294;49.410;8.698;2022-12-16T07:53:21;21.27;;;12.53;;
10493;SDS011;5294;49.410;8.698;2022-12-16T07:56:07;19.83;;;11.93;;
10493;SDS011;5294;49.410;8.698;2022-12-16T07:58:51;15.93;;;11.50;;
10493;SDS011;5294;49.410;8.698;2022-12-16T08:01:38;22.57;;;13.10;;
10493;SDS011;5294;49.410;8.698;2022-12-16T08:04:26;20.80;;;11.87;;
10493;SDS011;5294;49.410;8.698;2022-12-16T08:07:10;25.97;;;13.90;;
10493;SDS011;5294;49.410;8.698;2022-12-16T08:09:55;16.87;;;12.10;;
10493;SDS011;5294;49.410;8.698;2022-12-16T08:12:39;19.47;;;11.97;;
10493;SDS011;5294;49.410;8.698;2022-12-16T08:15:24;29.17;;;15.17;;
10493;SDS011;5294;49.410;8.698;2022-12-16T08:18:09;16.67;;;11.77;;
10493;SDS011;5294;49.410;8.698;2022-12-16T08:20:56;20.37;;;13.17;;
10493;SDS011;5294;49.410;8.698;2022-12-16T08:23:40;17.20;;;11.40;;
10493;SDS011;5294;49.410;8.698;2022-12-16T08:26:27;19.40;;;12.57;;
10493;SDS011;5294;49.410;8.698;2022-12-16T08:29:12;19.17;;;12.10;;
10493;SDS011;5294;49.410;8.698;2022-12-16T08:31:56;19.23;;;12.07;;
10493;SDS011;5294;49.410;8.698;2022-12-16T08:34:43;18.47;;;11.80;;
10493;SDS011;5294;49.410;8.698;2022-12-16T08:37:28;18.10;;;11.70;;
10493;SDS011;5294;49.410;8.698;2022-12-16T08:40:15;21.17;;;12.23;;
10493;SDS011;5294;49.410;8.698;2022-12-16T08:43:00;19.23;;;12.37;;
10493;SDS011;5294;49.410;8.698;2022-12-16T08:45:44;20.10;;;12.50;;
10493;SDS011;5294;49.410;8.698;2022-12-16T08:48:29;19.00;;;11.83;;
10493;SDS011;5294;49.410;8.698;2022-12-16T08:51:16;19.53;;;12.57;;
10493;SDS011;5294;49.410;8.698;2022-12-16T08:54:03;19.67;;;12.60;;
10493;SDS011;5294;49.410;8.698;2022-12-16T08:56:48;18.80;;;12.20;;
10493;SDS011;5294;49.410;8.698;2022-12-16T08:59:32;22.10;;;13.03;;
10493;SDS011;5294;49.410;8.698;2022-12-16T09:02:17;25.93;;;12.93;;
10493;SDS011;5294;49.410;8.698;2022-12-16T09:05:01;21.10;;;13.23;;
10493;SDS011;5294;49.410;8.698;2022-12-16T09:07:48;20.10;;;11.97;;
10493;SDS011;5294;49.410;8.698;2022-12-16T09:10:35;24.00;;;12.87;;
10493;SDS011;5294;49.410;8.698;2022-12-16T09:13:20;17.83;;;11.93;;
10493;SDS011;5294;49.410;8.698;2022-12-16T09:16:07;18.10;;;11.43;;
10493;SDS011;5294;49.410;8.698;2022-12-16T09:18:51;18.03;;;12.47;;
10493;SDS011;5294;49.410;8.698;2022-12-16T09:21:36;18.47;;;11.97;;
10493;SDS011;5294;49.410;8.698;2022-12-16T09:24:20;18.33;;;11.80;;
10493;SDS011;5294;49.410;8.698;2022-12-16T09:27:05;18.47;;;12.40;;
10493;SDS011;5294;49.410;8.698;2022-12-16T09:29:49;20.97;;;12.87;;
10493;SDS011;5294;49.410;8.698;2022-12-16T09:32:34;20.93;;;13.30;;
10493;SDS011;5294;49.410;8.698;2022-12-16T09:35:21;18.73;;;12.90;;
10493;SDS011;5294;49.410;8.698;2022-12-16T09:38:05;21.43;;;12.30;;
10493;SDS011;5294;49.410;8.698;2022-12-16T09:40:50;20.60;;;13.53;;
10493;SDS011;5294;49.410;8.698;2022-12-16T09:43:45;18.97;;;12.30;;
10493;SDS011;5294;49.410;8.698;2022-12-16T09:49:29;22.17;;;13.40;;
10493;SDS011;5294;49.410;8.698;2022-12-16T09:52:19;21.67;;;12.43;;
10493;SDS011;5294;49.410;8.698;2022-12-16T09:55:04;21.57;;;12.90;;
10493;SDS011;5294;49.410;8.698;2022-12-16T09:57:49;19.13;;;12.40;;
10493;SDS011;5294;49.410;8.698;2022-12-16T10:00:34;21.57;;;13.67;;
10493;SDS011;5294;49.410;8.698;2022-12-16T10:06:13;17.27;;;12.73;;
10493;SDS011;5294;49.410;8.698;2022-12-16T10:09:15;17.90;;;12.50;;
10493;SDS011;5294;49.410;8.698;2022-12-16T10:12:13;18.50;;;12.10;;
10493;SDS011;5294;49.410;8.698;2022-12-16T10:18:00;23.07;;;19.60;;
10493;SDS011;5294;49.410;8.698;2022-12-16T10:20:48;18.03;;;16.13;;
10493;SDS011;5294;49.410;8.698;2022-12-16T10:26:22;17.63;;;16.03;;
10493;SDS011;5294;49.410;8.698;2022-12-16T10:29:18;17.77;;;15.67;;
10493;SDS011;5294;49.410;8.698;2022-12-16T10:35:04;17.97;;;16.20;;
10493;SDS011;5294;49.410;8.698;2022-12-16T10:38:00;18.93;;;17.00;;
10493;SDS011;5294;49.410;8.698;2022-12-16T10:40:45;20.30;;;16.47;;
10493;SDS011;5294;49.410;8.698;2022-12-16T10:43:34;18.87;;;16.93;;
10493;SDS011;5294;49.410;8.698;2022-12-16T10:46:22;17.90;;;16.00;;
10493;SDS011;5294;49.410;8.698;2022-12-16T10:49:12;17.20;;;15.33;;
10493;SDS011;5294;49.410;8.698;2022-12-16T10:51:57;18.33;;;16.50;;
10493;SDS011;5294;49.410;8.698;2022-12-16T10:54:48;18.10;;;16.30;;
10493;SDS011;5294;49.410;8.698;2022-12-16T10:57:40;16.80;;;15.20;;
10493;SDS011;5294;49.410;8.698;2022-12-16T11:00:40;17.63;;;15.87;;
10493;SDS011;5294;49.410;8.698;2022-12-16T11:03:26;17.90;;;15.83;;
10493;SDS011;5294;49.410;8.698;2022-12-16T11:06:12;18.17;;;15.83;;
10493;SDS011;5294;49.410;8.698;2022-12-16T11:15:18;17.20;;;15.47;;
10493;SDS011;5294;49.410;8.698;2022-12-16T11:18:04;18.07;;;16.27;;
10493;SDS011;5294;49.410;8.698;2022-12-16T11:26:57;18.47;;;16.47;;
10493;SDS011;5294;49.410;8.698;2022-12-16T11:29:55;18.43;;;16.43;;
10493;SDS011;5294;49.410;8.698;2022-12-16T11:32:44;16.80;;;15.10;;
10493;SDS011;5294;49.410;8.698;2022-12-16T11:35:31;18.97;;;17.07;;
10493;SDS011;5294;49.410;8.698;2022-12-16T11:38:20;18.47;;;16.57;;
10493;SDS011;5294;49.410;8.698;2022-12-16T11:41:06;19.17;;;17.17;;
10493;SDS011;5294;49.410;8.698;2022-12-16T11:43:52;19.87;;;17.87;;
10493;SDS011;5294;49.410;8.698;2022-12-16T11:46:38;18.20;;;16.40;;
10493;SDS011;5294;49.410;8.698;2022-12-16T11:49:24;19.13;;;17.00;;
10493;SDS011;5294;49.410;8.698;2022-12-16T11:52:12;17.77;;;15.80;;
10493;SDS011;5294;49.410;8.698;2022-12-16T11:58:04;18.57;;;12.17;;
10493;SDS011;5294;49.410;8.698;2022-12-16T12:01:02;17.30;;;15.57;;
10493;SDS011;5294;49.410;8.698;2022-12-16T12:03:49;19.63;;;16.70;;
10493;SDS011;5294;49.410;8.698;2022-12-16T12:06:58;18.50;;;16.60;;
10493;SDS011;5294;49.410;8.698;2022-12-16T12:09:40;18.57;;;16.20;;
10493;SDS011;5294;49.410;8.698;2022-12-16T12:12:35;19.33;;;17.13;;
10493;SDS011;5294;49.410;8.698;2022-12-16T12:15:24;18.33;;;16.33;;
10493;SDS011;5294;49.410;8.698;2022-12-16T12:26:48;17.43;;;15.63;;
10493;SDS011;5294;49.410;8.698;2022-12-16T12:29:44;18.97;;;17.03;;
10493;SDS011;5294;49.410;8.698;2022-12-16T12:35:43;15.37;;;12.00;;
10493;SDS011;5294;49.410;8.698;2022-12-16T12:38:35;18.43;;;16.53;;
10493;SDS011;5294;49.410;8.698;2022-12-16T12:41:26;18.20;;;16.37;;
10493;SDS011;5294;49.410;8.698;2022-12-16T12:44:34;17.67;;;15.77;;
10493;SDS011;5294;49.410;8.698;2022-12-16T12:47:21;18.73;;;16.73;;
10493;SDS011;5294;49.410;8.698;2022-12-16T12:50:07;19.03;;;16.90;;
10493;SDS011;5294;49.410;8.698;2022-12-16T12:53:10;18.00;;;12.77;;
10493;SDS011;5294;49.410;8.698;2022-12-16T12:56:20;18.03;;;16.17;;
10493;SDS011;5294;49.410;8.698;2022-12-16T12:59:15;14.90;;;11.90;;
10493;SDS011;5294;49.410;8.698;2022-12-16T13:02:01;18.13;;;16.23;;
10493;SDS011;5294;49.410;8.698;2022-12-16T13:04:48;19.37;;;15.87;;
10493;SDS011;5294;49.410;8.698;2022-12-16T13:07:32;18.37;;;16.47;;
10493;SDS011;5294;49.410;8.698;2022-12-16T13:16:02;17.97;;;16.17;;
10493;SDS011;5294;49.410;8.698;2022-12-16T13:18:50;17.17;;;15.37;;
10493;SDS011;5294;49.410;8.698;2022-12-16T13:21:54;17.27;;;15.30;;
10493;SDS011;5294;49.410;8.698;2022-12-16T13:27:27;16.67;;;14.90;;
10493;SDS011;5294;49.410;8.698;2022-12-16T13:33:01;15.97;;;14.27;;
10493;SDS011;5294;49.410;8.698;2022-12-16T13:35:53;15.90;;;14.30;;
10493;SDS011;5294;49.410;8.698;2022-12-16T13:38:48;16.20;;;14.20;;
10493;SDS011;5294;49.410;8.698;2022-12-16T13:45:14;16.10;;;14.53;;
10493;SDS011;5294;49.410;8.698;2022-12-16T13:47:32;16.30;;;14.60;;
10493;SDS011;5294;49.410;8.698;2022-12-16T13:53:21;17.60;;;15.13;;
10493;SDS011;5294;49.410;8.698;2022-12-16T13:56:08;15.60;;;14.07;;
10493;SDS011;5294;49.410;8.698;2022-12-16T13:58:58;15.87;;;14.23;;
10493;SDS011;5294;49.410;8.698;2022-12-16T14:01:53;15.47;;;13.87;;
10493;SDS011;5294;49.410;8.698;2022-12-16T14:04:43;15.40;;;13.80;;
10493;SDS011;5294;49.410;8.698;2022-12-16T14:07:32;16.60;;;14.70;;
10493;SDS011;5294;49.410;8.698;2022-12-16T14:10:28;15.97;;;14.33;;
10493;SDS011;5294;49.410;8.698;2022-12-16T14:13:21;15.83;;;13.80;;
10493;SDS011;5294;49.410;8.698;2022-12-16T14:16:15;14.80;;;13.27;;
10493;SDS011;5294;49.410;8.698;2022-12-16T14:21:58;16.03;;;14.33;;
10493;SDS011;5294;49.410;8.698;2022-12-16T14:24:47;15.57;;;12.93;;
10493;SDS011;5294;49.410;8.698;2022-12-16T14:27:31;16.77;;;13.83;;
10493;SDS011;5294;49.410;8.698;2022-12-16T14:30:22;14.27;;;12.83;;
10493;SDS011;5294;49.410;8.698;2022-12-16T14:36:28;15.17;;;13.67;;
10493;SDS011;5294;49.410;8.698;2022-12-16T14:39:19;14.40;;;12.90;;
10493;SDS011;5294;49.410;8.698;2022-12-16T14:42:26;16.17;;;14.33;;
10493;SDS011;5294;49.410;8.698;2022-12-16T14:45:19;15.57;;;13.93;;
10493;SDS011;5294;49.410;8.698;2022-12-16T14:48:16;15.33;;;13.73;;
10493;SDS011;5294;49.410;8.698;2022-12-16T14:57:02;15.87;;;14.27;;
10493;SDS011;5294;49.410;8.698;2022-12-16T14:59:58;16.53;;;14.50;;
10493;SDS011;5294;49.410;8.698;2022-12-16T15:02:43;17.17;;;14.63;;
10493;SDS011;5294;49.410;8.698;2022-12-16T15:05:31;16.00;;;14.17;;
10493;SDS011;5294;49.410;8.698;2022-12-16T15:08:16;17.17;;;15.37;;
10493;SDS011;5294;49.410;8.698;2022-12-16T15:11:02;20.03;;;16.33;;
10493;SDS011;5294;49.410;8.698;2022-12-16T15:13:49;15.70;;;11.17;;
10493;SDS011;5294;49.410;8.698;2022-12-16T15:16:40;14.67;;;10.37;;
10493;SDS011;5294;49.410;8.698;2022-12-16T15:19:25;16.50;;;14.80;;
10493;SDS011;5294;49.410;8.698;2022-12-16T15:22:14;16.07;;;14.37;;
10493;SDS011;5294;49.410;8.698;2022-12-16T15:25:02;15.27;;;10.27;;
10493;SDS011;5294;49.410;8.698;2022-12-16T15:27:54;16.27;;;14.13;;
10493;SDS011;5294;49.410;8.698;2022-12-16T15:33:27;13.53;;;10.97;;
10493;SDS011;5294;49.410;8.698;2022-12-16T15:38:59;15.83;;;14.20;;
10493;SDS011;5294;49.410;8.698;2022-12-16T15:41:45;15.47;;;13.93;;
10493;SDS011;5294;49.410;8.698;2022-12-16T15:44:30;16.13;;;14.10;;
10493;SDS011;5294;49.410;8.698;2022-12-16T15:50:02;15.03;;;13.53;;
10493;SDS011;5294;49.410;8.698;2022-12-16T15:55:58;16.47;;;14.70;;
10493;SDS011;5294;49.410;8.698;2022-12-16T15:58:42;18.80;;;15.90;;
10493;SDS011;5294;49.410;8.698;2022-12-16T16:01:27;16.67;;;11.93;;
10493;SDS011;5294;49.410;8.698;2022-12-16T16:07:09;18.80;;;12.37;;
10493;SDS011;5294;49.410;8.698;2022-12-16T16:10:03;21.13;;;17.10;;
10493;SDS011;5294;49.410;8.698;2022-12-16T16:12:52;18.17;;;16.23;;
10493;SDS011;5294;49.410;8.698;2022-12-16T16:15:36;14.43;;;10.50;;
10493;SDS011;5294;49.410;8.698;2022-12-16T16:18:20;16.33;;;12.00;;
10493;SDS011;5294;49.410;8.698;2022-12-16T16:21:07;17.13;;;15.33;;
10493;SDS011;5294;49.410;8.698;2022-12-16T16:23:52;17.93;;;15.93;;
10493;SDS011;5294;49.410;8.698;2022-12-16T16:26:36;17.77;;;15.87;;
10493;SDS011;5294;49.410;8.698;2022-12-16T16:29:23;14.67;;;10.77;;
10493;SDS011;5294;49.410;8.698;2022-12-16T16:32:08;15.33;;;11.10;;
10493;SDS011;5294;49.410;8.698;2022-12-16T16:34:53;16.90;;;11.50;;
10493;SDS011;5294;49.410;8.698;2022-12-16T16:37:37;17.97;;;16.00;;
10493;SDS011;5294;49.410;8.698;2022-12-16T16:40:26;18.83;;;16.80;;
10493;SDS011;5294;49.410;8.698;2022-12-16T16:43:12;16.20;;;10.97;;
10493;SDS011;5294;49.410;8.698;2022-12-16T16:45:56;17.50;;;11.63;;
10493;SDS011;5294;49.410;8.698;2022-12-16T16:48:41;15.27;;;11.03;;
10493;SDS011;5294;49.410;8.698;2022-12-16T16:51:26;18.77;;;16.10;;
10493;SDS011;5294;49.410;8.698;2022-12-16T16:54:11;16.47;;;11.77;;
10493;SDS011;5294;49.410;8.698;2022-12-16T16:56:55;15.03;;;11.60;;
10493;SDS011;5294;49.410;8.698;2022-12-16T16:59:40;18.10;;;16.20;;
10493;SDS011;5294;49.410;8.698;2022-12-16T17:02:24;16.83;;;15.13;;
10493;SDS011;5294;49.410;8.698;2022-12-16T17:05:09;12.63;;;9.80;;
10493;SDS011;5294;49.410;8.698;2022-12-16T17:07:56;13.90;;;10.73;;
10493;SDS011;5294;49.410;8.698;2022-12-16T17:10:41;16.67;;;14.93;;
10493;SDS011;5294;49.410;8.698;2022-12-16T17:13:26;16.87;;;15.17;;
10493;SDS011;5294;49.410;8.698;2022-12-16T17:16:11;15.03;;;11.53;;
10493;SDS011;5294;49.410;8.698;2022-12-16T17:18:56;17.23;;;15.43;;
10493;SDS011;5294;49.410;8.698;2022-12-16T17:21:40;18.37;;;11.47;;
10493;SDS011;5294;49.410;8.698;2022-12-16T17:24:25;15.70;;;11.80;;
10493;SDS011;5294;49.410;8.698;2022-12-16T17:27:17;16.50;;;11.40;;
10493;SDS011;5294;49.410;8.698;2022-12-16T17:30:03;15.10;;;10.77;;
10493;SDS011;5294;49.410;8.698;2022-12-16T17:32:48;14.50;;;11.10;;
10493;SDS011;5294;49.410;8.698;2022-12-16T17:35:32;17.47;;;11.40;;
10493;SDS011;5294;49.410;8.698;2022-12-16T17:38:17;13.27;;;11.27;;
10493;SDS011;5294;49.410;8.698;2022-12-16T17:41:02;15.73;;;11.60;;
10493;SDS011;5294;49.410;8.698;2022-12-16T17:43:46;15.10;;;11.60;;
10493;SDS011;5294;49.410;8.698;2022-12-16T17:46:33;17.50;;;12.23;;
10493;SDS011;5294;49.410;8.698;2022-12-16T17:49:17;16.47;;;12.23;;
10493;SDS011;5294;49.410;8.698;2022-12-16T17:52:02;13.53;;;11.60;;
10493;SDS011;5294;49.410;8.698;2022-12-16T17:54:47;18.07;;;12.47;;
10493;SDS011;5294;49.410;8.698;2022-12-16T17:57:32;19.07;;;17.00;;
10493;SDS011;5294;49.410;8.698;2022-12-16T18:00:16;16.03;;;12.03;;
10493;SDS011;5294;49.410;8.698;2022-12-16T18:03:01;13.90;;;11.90;;
10493;SDS011;5294;49.410;8.698;2022-12-16T18:05:48;16.13;;;12.00;;
10493;SDS011;5294;49.410;8.698;2022-12-16T18:08:38;18.67;;;16.67;;